sensor_id;sensor_type;location;lat;lon;timestamp;pressure;altitude;pressure_sealevel;temperature;humidity
39295;BME280;52361;52.100;5.248;2023-10-19T00:01:14;99189.0;;;11.45;100.0
39295;BME280;52361;52.100;5.248;2023-10-19T00:04:27;99183.0;;;11.54;100.0
39295;BME280;52361;52.100;5.248;2023-10-19T00:07:39;99168.0;;;11.93;100.0
39295;BME280;52361;52.100;5.248;2023-10-19T00:14:06;99176.0;;;12.11;100.0
39295;BME280;52361;52.100;5.248;2023-10-19T00:15:43;99174.0;;;12.11;100.0
39295;BME280;52361;52.100;5.248;2023-10-19T00:18:55;99175.0;;;12.11;100.0
39295;BME280;52361;52.100;5.248;2023-10-19T00:20:31;99176.0;;;12.39;100.0
39295;BME280;52361;52.100;5.248;2023-10-19T00:25:21;99169.0;;;12.35;100.0
39295;BME280;52361;52.100;5.248;2023-10-19T00:33:22;99172.0;;;12.79;100.0
39295;BME280;52361;52.100;5.248;2023-10-19T00:34:58;99162.0;;;12.82;100.0
39295;BME280;52361;52.100;5.248;2023-10-19T00:36:34;99162.0;;;12.61;100.0
39295;BME280;52361;52.100;5.248;2023-10-19T00:41:24;99160.0;;;12.6;100.0
39295;BME280;52361;52.100;5.248;2023-10-19T00:47:54;99156.0;;;12.72;100.0
39295;BME280;52361;52.100;5.248;2023-10-19T00:57:39;99145.0;;;12.72;100.0
39295;BME280;52361;52.100;5.248;2023-10-19T01:00:55;99147.0;;;12.74;100.0
39295;BME280;52361;52.100;5.248;2023-10-19T01:04:07;99149.0;;;13.0;100.0
39295;BME280;52361;52.100;5.248;2023-10-19T01:10:32;99146.0;;;12.97;100.0
39295;BME280;52361;52.100;5.248;2023-10-19T01:12:08;99136.0;;;12.85;100.0
39295;BME280;52361;52.100;5.248;2023-10-19T01:15:21;99137.0;;;12.93;100.0
39295;BME280;52361;52.100;5.248;2023-10-19T01:21:48;99128.0;;;12.94;100.0
39295;BME280;52361;52.100;5.248;2023-10-19T01:23:25;99135.0;;;13.23;100.0
39295;BME280;52361;52.100;5.248;2023-10-19T01:25:04;99140.0;;;13.35;100.0
39295;BME280;52361;52.100;5.248;2023-10-19T01:31:29;99127.0;;;13.52;100.0
39295;BME280;52361;52.100;5.248;2023-10-19T01:37:53;99139.0;;;13.43;100.0
39295;BME280;52361;52.100;5.248;2023-10-19T01:39:30;99135.0;;;13.36;100.0
39295;BME280;52361;52.100;5.248;2023-10-19T01:42:45;99137.0;;;13.61;100.0
39295;BME280;52361;52.100;5.248;2023-10-19T01:45:57;99133.0;;;13.71;100.0
39295;BME280;52361;52.100;5.248;2023-10-19T01:47:34;99138.0;;;13.9;100.0
39295;BME280;52361;52.100;5.248;2023-10-19T01:53:59;99131.0;;;14.16;100.0
39295;BME280;52361;52.100;5.248;2023-10-19T01:58:49;99128.0;;;14.21;100.0
39295;BME280;52361;52.100;5.248;2023-10-19T02:03:39;99130.0;;;14.38;100.0
39295;BME280;52361;52.100;5.248;2023-10-19T02:05:16;99128.0;;;14.41;100.0
39295;BME280;52361;52.100;5.248;2023-10-19T02:11:41;99125.0;;;14.55;100.0
39295;BME280;52361;52.100;5.248;2023-10-19T02:14:53;99125.0;;;14.65;100.0
39295;BME280;52361;52.100;5.248;2023-10-19T02:19:41;99131.0;;;14.78;100.0
39295;BME280;52361;52.100;5.248;2023-10-19T02:21:18;99123.0;;;14.76;100.0
39295;BME280;52361;52.100;5.248;2023-10-19T02:27:44;99126.0;;;14.79;100.0
39295;BME280;52361;52.100;5.248;2023-10-19T02:29:20;99121.0;;;14.89;100.0
39295;BME280;52361;52.100;5.248;2023-10-19T02:34:11;99120.0;;;14.98;100.0
39295;BME280;52361;52.100;5.248;2023-10-19T02:35:48;99116.0;;;14.99;100.0
39295;BME280;52361;52.100;5.248;2023-10-19T02:39:02;99109.0;;;14.94;100.0
39295;BME280;52361;52.100;5.248;2023-10-19T02:40:39;99105.0;;;15.04;100.0
39295;BME280;52361;52.100;5.248;2023-10-19T02:45:27;99107.0;;;15.14;100.0
39295;BME280;52361;52.100;5.248;2023-10-19T02:47:03;99107.0;;;15.11;100.0
39295;BME280;52361;52.100;5.248;2023-10-19T03:01:31;99101.0;;;15.28;100.0
39295;BME280;52361;52.100;5.248;2023-10-19T03:17:33;99094.0;;;15.33;100.0
39295;BME280;52361;52.100;5.248;2023-10-19T03:35:13;99080.0;;;15.24;100.0
39295;BME280;52361;52.100;5.248;2023-10-19T03:41:38;99071.0;;;15.25;100.0
39295;BME280;52361;52.100;5.248;2023-10-19T03:43:15;99070.0;;;15.35;100.0
39295;BME280;52361;52.100;5.248;2023-10-19T03:44:51;99071.0;;;15.38;100.0
39295;BME280;52361;52.100;5.248;2023-10-19T03:54:28;99065.0;;;15.58;100.0
39295;BME280;52361;52.100;5.248;2023-10-19T04:02:29;99073.0;;;15.69;100.0
39295;BME280;52361;52.100;5.248;2023-10-19T04:08:54;99062.0;;;15.7;100.0
39295;BME280;52361;52.100;5.248;2023-10-19T04:10:30;99065.0;;;15.66;100.0
39295;BME280;52361;52.100;5.248;2023-10-19T04:15:19;99062.0;;;15.68;100.0
39295;BME280;52361;52.100;5.248;2023-10-19T04:24:58;99053.0;;;15.79;100.0
39295;BME280;52361;52.100;5.248;2023-10-19T04:26:34;99050.0;;;15.78;100.0
39295;BME280;52361;52.100;5.248;2023-10-19T04:31:24;99055.0;;;15.69;100.0
39295;BME280;52361;52.100;5.248;2023-10-19T04:58:42;99066.0;;;15.47;100.0
39295;BME280;52361;52.100;5.248;2023-10-19T05:00:19;99067.0;;;15.48;100.0
39295;BME280;52361;52.100;5.248;2023-10-19T05:05:07;99070.0;;;15.44;100.0
39295;BME280;52361;52.100;5.248;2023-10-19T05:08:20;99071.0;;;15.51;100.0
39295;BME280;52361;52.100;5.248;2023-10-19T05:16:21;99078.0;;;15.67;100.0
39295;BME280;52361;52.100;5.248;2023-10-19T05:17:57;99085.0;;;15.77;100.0
39295;BME280;52361;52.100;5.248;2023-10-19T05:21:10;99092.0;;;15.74;100.0
39295;BME280;52361;52.100;5.248;2023-10-19T05:24:23;99090.0;;;15.75;100.0
39295;BME280;52361;52.100;5.248;2023-10-19T05:26:01;99089.0;;;15.74;100.0
39295;BME280;52361;52.100;5.248;2023-10-19T05:34:02;99097.0;;;15.87;100.0
39295;BME280;52361;52.100;5.248;2023-10-19T05:40:26;99094.0;;;15.89;100.0
39295;BME280;52361;52.100;5.248;2023-10-19T05:48:28;99097.0;;;15.98;100.0
39295;BME280;52361;52.100;5.248;2023-10-19T06:07:45;99107.0;;;15.93;100.0
39295;BME280;52361;52.100;5.248;2023-10-19T06:09:21;99109.0;;;15.97;100.0
39295;BME280;52361;52.100;5.248;2023-10-19T06:15:47;99109.0;;;15.89;100.0
39295;BME280;52361;52.100;5.248;2023-10-19T06:44:41;99118.0;;;16.02;100.0
39295;BME280;52361;52.100;5.248;2023-10-19T06:47:53;99124.0;;;15.96;100.0
39295;BME280;52361;52.100;5.248;2023-10-19T06:55:54;99138.0;;;15.9;100.0
39295;BME280;52361;52.100;5.248;2023-10-19T06:57:31;99140.0;;;15.84;100.0
39295;BME280;52361;52.100;5.248;2023-10-19T07:00:44;99142.0;;;15.84;100.0
39295;BME280;52361;52.100;5.248;2023-10-19T07:05:32;99147.0;;;15.83;100.0
39295;BME280;52361;52.100;5.248;2023-10-19T07:11:57;99148.0;;;15.89;100.0
39295;BME280;52361;52.100;5.248;2023-10-19T07:31:11;99164.0;;;16.14;100.0
39295;BME280;52361;52.100;5.248;2023-10-19T07:32:48;99162.0;;;16.25;100.0
39295;BME280;52361;52.100;5.248;2023-10-19T07:36:00;99163.0;;;16.2;100.0
39295;BME280;52361;52.100;5.248;2023-10-19T07:39:12;99170.0;;;16.2;100.0
39295;BME280;52361;52.100;5.248;2023-10-19T07:45:39;99166.0;;;16.25;100.0
39295;BME280;52361;52.100;5.248;2023-10-19T07:50:28;99167.0;;;16.36;100.0
39295;BME280;52361;52.100;5.248;2023-10-19T07:52:04;99161.0;;;16.36;100.0
39295;BME280;52361;52.100;5.248;2023-10-19T07:53:40;99163.0;;;16.5;100.0
39295;BME280;52361;52.100;5.248;2023-10-19T07:56:55;99166.0;;;16.46;100.0
39295;BME280;52361;52.100;5.248;2023-10-19T08:06:33;99160.0;;;16.52;100.0
39295;BME280;52361;52.100;5.248;2023-10-19T08:12:59;99159.0;;;16.5;100.0
39295;BME280;52361;52.100;5.248;2023-10-19T08:19:28;99158.0;;;16.54;100.0
39295;BME280;52361;52.100;5.248;2023-10-19T08:21:04;99156.0;;;16.57;100.0
39295;BME280;52361;52.100;5.248;2023-10-19T08:24:18;99167.0;;;16.61;100.0
39295;BME280;52361;52.100;5.248;2023-10-19T08:25:55;99166.0;;;16.57;100.0
39295;BME280;52361;52.100;5.248;2023-10-19T08:30:44;99163.0;;;16.75;100.0
39295;BME280;52361;52.100;5.248;2023-10-19T08:35:34;99155.0;;;16.7;100.0
39295;BME280;52361;52.100;5.248;2023-10-19T08:42:01;99140.0;;;16.81;100.0
39295;BME280;52361;52.100;5.248;2023-10-19T08:45:14;99135.0;;;16.82;100.0
39295;BME280;52361;52.100;5.248;2023-10-19T08:46:51;99141.0;;;16.81;100.0
39295;BME280;52361;52.100;5.248;2023-10-19T08:53:21;99150.0;;;16.89;100.0
39295;BME280;52361;52.100;5.248;2023-10-19T08:54:58;99149.0;;;16.95;100.0
39295;BME280;52361;52.100;5.248;2023-10-19T08:56:34;99155.0;;;16.89;100.0
39295;BME280;52361;52.100;5.248;2023-10-19T08:59:46;99150.0;;;16.93;100.0
39295;BME280;52361;52.100;5.248;2023-10-19T09:02:58;99142.0;;;17.13;100.0
39295;BME280;52361;52.100;5.248;2023-10-19T09:06:17;99148.0;;;17.27;100.0
39295;BME280;52361;52.100;5.248;2023-10-19T09:09:31;99149.0;;;17.34;100.0
39295;BME280;52361;52.100;5.248;2023-10-19T09:11:08;99149.0;;;17.54;100.0
39295;BME280;52361;52.100;5.248;2023-10-19T09:14:36;99142.0;;;17.71;100.0
39295;BME280;52361;52.100;5.248;2023-10-19T09:16:13;99142.0;;;17.72;100.0
39295;BME280;52361;52.100;5.248;2023-10-19T09:17:49;99141.0;;;17.95;100.0
39295;BME280;52361;52.100;5.248;2023-10-19T09:24:28;99143.0;;;18.03;100.0
39295;BME280;52361;52.100;5.248;2023-10-19T09:26:05;99142.0;;;17.95;100.0
39295;BME280;52361;52.100;5.248;2023-10-19T09:29:18;99149.0;;;18.09;100.0
39295;BME280;52361;52.100;5.248;2023-10-19T09:30:55;99150.0;;;18.14;100.0
39295;BME280;52361;52.100;5.248;2023-10-19T09:34:08;99145.0;;;17.96;100.0
39295;BME280;52361;52.100;5.248;2023-10-19T09:37:22;99139.0;;;17.96;100.0
39295;BME280;52361;52.100;5.248;2023-10-19T09:38:59;99138.0;;;18.29;100.0
39295;BME280;52361;52.100;5.248;2023-10-19T09:43:52;99138.0;;;18.47;100.0
39295;BME280;52361;52.100;5.248;2023-10-19T09:45:30;99139.0;;;18.47;100.0
39295;BME280;52361;52.100;5.248;2023-10-19T09:47:10;99134.0;;;18.66;100.0
39295;BME280;52361;52.100;5.248;2023-10-19T09:48:48;99132.0;;;18.75;100.0
39295;BME280;52361;52.100;5.248;2023-10-19T09:52:01;99126.0;;;18.86;100.0
39295;BME280;52361;52.100;5.248;2023-10-19T09:58:48;99113.0;;;18.68;100.0
39295;BME280;52361;52.100;5.248;2023-10-19T10:00:27;99109.0;;;18.77;100.0
39295;BME280;52361;52.100;5.248;2023-10-19T10:02:05;99114.0;;;18.84;100.0
39295;BME280;52361;52.100;5.248;2023-10-19T10:03:44;99118.0;;;18.79;100.0
39295;BME280;52361;52.100;5.248;2023-10-19T10:07:33;99119.0;;;18.77;100.0
39295;BME280;52361;52.100;5.248;2023-10-19T10:10:46;99122.0;;;18.68;100.0
39295;BME280;52361;52.100;5.248;2023-10-19T10:12:23;99115.0;;;18.72;100.0
39295;BME280;52361;52.100;5.248;2023-10-19T10:14:01;99117.0;;;18.66;100.0
39295;BME280;52361;52.100;5.248;2023-10-19T10:15:58;99121.0;;;18.73;100.0
39295;BME280;52361;52.100;5.248;2023-10-19T10:19:20;99126.0;;;18.77;100.0
39295;BME280;52361;52.100;5.248;2023-10-19T10:21:05;99128.0;;;18.88;100.0
39295;BME280;52361;52.100;5.248;2023-10-19T10:22:41;99126.0;;;18.93;100.0
39295;BME280;52361;52.100;5.248;2023-10-19T10:24:17;99130.0;;;18.95;100.0
39295;BME280;52361;52.100;5.248;2023-10-19T10:27:35;99118.0;;;18.95;100.0
39295;BME280;52361;52.100;5.248;2023-10-19T10:29:14;99114.0;;;18.71;100.0
39295;BME280;52361;52.100;5.248;2023-10-19T10:32:56;99105.0;;;18.86;100.0
39295;BME280;52361;52.100;5.248;2023-10-19T10:36:21;99105.0;;;18.66;100.0
39295;BME280;52361;52.100;5.248;2023-10-19T10:37:58;99108.0;;;18.8;100.0
39295;BME280;52361;52.100;5.248;2023-10-19T10:39:36;99105.0;;;18.82;100.0
39295;BME280;52361;52.100;5.248;2023-10-19T10:44:43;99100.0;;;18.84;100.0
39295;BME280;52361;52.100;5.248;2023-10-19T10:46:22;99098.0;;;18.88;100.0
39295;BME280;52361;52.100;5.248;2023-10-19T10:47:59;99091.0;;;18.81;100.0
39295;BME280;52361;52.100;5.248;2023-10-19T10:49:47;99095.0;;;18.93;100.0
39295;BME280;52361;52.100;5.248;2023-10-19T10:53:02;99103.0;;;18.77;100.0
39295;BME280;52361;52.100;5.248;2023-10-19T10:54:40;99105.0;;;18.77;100.0
39295;BME280;52361;52.100;5.248;2023-10-19T10:56:16;99100.0;;;18.77;100.0
39295;BME280;52361;52.100;5.248;2023-10-19T10:57:54;99094.0;;;18.77;100.0
39295;BME280;52361;52.100;5.248;2023-10-19T11:01:07;99086.0;;;18.93;100.0
39295;BME280;52361;52.100;5.248;2023-10-19T11:07:39;99083.0;;;19.02;100.0
39295;BME280;52361;52.100;5.248;2023-10-19T11:09:16;99081.0;;;18.87;100.0
39295;BME280;52361;52.100;5.248;2023-10-19T11:10:53;99078.0;;;19.18;100.0
39295;BME280;52361;52.100;5.248;2023-10-19T11:12:29;99080.0;;;19.16;100.0
39295;BME280;52361;52.100;5.248;2023-10-19T11:15:49;99078.0;;;19.13;100.0
39295;BME280;52361;52.100;5.248;2023-10-19T11:17:26;99078.0;;;19.12;100.0
39295;BME280;52361;52.100;5.248;2023-10-19T11:22:15;99082.0;;;19.21;100.0
39295;BME280;52361;52.100;5.248;2023-10-19T11:23:52;99076.0;;;19.27;100.0
39295;BME280;52361;52.100;5.248;2023-10-19T11:25:30;99074.0;;;19.52;100.0
39295;BME280;52361;52.100;5.248;2023-10-19T11:27:07;99080.0;;;19.64;100.0
39295;BME280;52361;52.100;5.248;2023-10-19T11:30:23;99088.0;;;19.7;100.0
39295;BME280;52361;52.100;5.248;2023-10-19T11:32:00;99088.0;;;19.68;100.0
39295;BME280;52361;52.100;5.248;2023-10-19T11:33:36;99081.0;;;19.39;100.0
39295;BME280;52361;52.100;5.248;2023-10-19T11:36:52;99084.0;;;19.45;100.0
39295;BME280;52361;52.100;5.248;2023-10-19T11:41:42;99078.0;;;19.75;100.0
39295;BME280;52361;52.100;5.248;2023-10-19T11:46:32;99077.0;;;19.93;100.0
39295;BME280;52361;52.100;5.248;2023-10-19T11:48:09;99070.0;;;20.2;100.0
39295;BME280;52361;52.100;5.248;2023-10-19T11:51:21;99064.0;;;20.27;100.0
39295;BME280;52361;52.100;5.248;2023-10-19T11:54:33;99056.0;;;20.18;100.0
39295;BME280;52361;52.100;5.248;2023-10-19T11:57:48;99044.0;;;19.96;100.0
39295;BME280;52361;52.100;5.248;2023-10-19T12:01:01;99038.0;;;20.0;100.0
39295;BME280;52361;52.100;5.248;2023-10-19T12:02:38;99041.0;;;19.93;100.0
39295;BME280;52361;52.100;5.248;2023-10-19T12:07:28;99043.0;;;20.11;100.0
39295;BME280;52361;52.100;5.248;2023-10-19T12:13:52;99042.0;;;20.12;100.0
39295;BME280;52361;52.100;5.248;2023-10-19T12:15:30;99040.0;;;20.27;100.0
39295;BME280;52361;52.100;5.248;2023-10-19T12:18:42;99037.0;;;20.09;100.0
39295;BME280;52361;52.100;5.248;2023-10-19T12:20:19;99038.0;;;20.18;100.0
39295;BME280;52361;52.100;5.248;2023-10-19T12:23:32;99030.0;;;19.93;100.0
39295;BME280;52361;52.100;5.248;2023-10-19T12:26:45;99031.0;;;19.86;100.0
39295;BME280;52361;52.100;5.248;2023-10-19T12:28:22;99025.0;;;19.95;100.0
39295;BME280;52361;52.100;5.248;2023-10-19T12:29:58;99017.0;;;19.87;100.0
39295;BME280;52361;52.100;5.248;2023-10-19T12:33:11;99020.0;;;20.0;100.0
39295;BME280;52361;52.100;5.248;2023-10-19T12:34:47;99020.0;;;20.07;100.0
39295;BME280;52361;52.100;5.248;2023-10-19T12:36:23;99018.0;;;20.0;100.0
39295;BME280;52361;52.100;5.248;2023-10-19T12:39:35;99017.0;;;19.79;100.0
39295;BME280;52361;52.100;5.248;2023-10-19T12:41:12;99018.0;;;19.86;100.0
39295;BME280;52361;52.100;5.248;2023-10-19T12:42:49;99018.0;;;19.86;100.0
39295;BME280;52361;52.100;5.248;2023-10-19T12:47:37;99015.0;;;19.89;100.0
39295;BME280;52361;52.100;5.248;2023-10-19T12:49:13;99015.0;;;19.96;100.0
39295;BME280;52361;52.100;5.248;2023-10-19T12:50:49;99011.0;;;19.95;100.0
39295;BME280;52361;52.100;5.248;2023-10-19T12:54:01;99010.0;;;19.68;100.0
39295;BME280;52361;52.100;5.248;2023-10-19T12:57:14;99013.0;;;19.89;100.0
39295;BME280;52361;52.100;5.248;2023-10-19T13:00:27;99019.0;;;19.81;100.0
39295;BME280;52361;52.100;5.248;2023-10-19T13:03:39;99018.0;;;19.66;100.0
39295;BME280;52361;52.100;5.248;2023-10-19T13:06:51;99013.0;;;19.55;100.0
39295;BME280;52361;52.100;5.248;2023-10-19T13:08:27;99017.0;;;19.31;100.0
39295;BME280;52361;52.100;5.248;2023-10-19T13:10:04;99019.0;;;19.43;100.0
39295;BME280;52361;52.100;5.248;2023-10-19T13:11:41;99015.0;;;19.45;100.0
39295;BME280;52361;52.100;5.248;2023-10-19T13:14:53;99015.0;;;19.06;100.0
39295;BME280;52361;52.100;5.248;2023-10-19T13:16:29;99019.0;;;19.02;100.0
39295;BME280;52361;52.100;5.248;2023-10-19T13:21:20;99008.0;;;18.95;100.0
39295;BME280;52361;52.100;5.248;2023-10-19T13:22:56;99010.0;;;19.18;100.0
39295;BME280;52361;52.100;5.248;2023-10-19T13:27:46;99009.0;;;18.86;100.0
39295;BME280;52361;52.100;5.248;2023-10-19T13:29:22;99008.0;;;18.91;100.0
39295;BME280;52361;52.100;5.248;2023-10-19T13:30:58;99009.0;;;18.77;100.0
39295;BME280;52361;52.100;5.248;2023-10-19T13:32:34;99010.0;;;18.93;100.0
39295;BME280;52361;52.100;5.248;2023-10-19T13:35:47;99003.0;;;18.87;100.0
39295;BME280;52361;52.100;5.248;2023-10-19T13:37:24;98994.0;;;18.68;100.0
39295;BME280;52361;52.100;5.248;2023-10-19T13:38:59;98996.0;;;18.57;100.0
39295;BME280;52361;52.100;5.248;2023-10-19T13:42:12;98995.0;;;18.45;100.0
39295;BME280;52361;52.100;5.248;2023-10-19T13:43:48;98983.0;;;18.56;100.0
39295;BME280;52361;52.100;5.248;2023-10-19T13:45:24;98980.0;;;18.5;100.0
39295;BME280;52361;52.100;5.248;2023-10-19T13:48:37;98976.0;;;18.59;100.0
39295;BME280;52361;52.100;5.248;2023-10-19T13:50:13;98980.0;;;18.57;100.0
39295;BME280;52361;52.100;5.248;2023-10-19T13:51:49;98980.0;;;18.57;100.0
39295;BME280;52361;52.100;5.248;2023-10-19T13:53:26;98981.0;;;18.72;100.0
39295;BME280;52361;52.100;5.248;2023-10-19T13:56:39;98984.0;;;18.82;100.0
39295;BME280;52361;52.100;5.248;2023-10-19T13:58:16;98980.0;;;18.5;100.0
39295;BME280;52361;52.100;5.248;2023-10-19T13:59:53;98976.0;;;18.45;100.0
39295;BME280;52361;52.100;5.248;2023-10-19T14:03:05;98975.0;;;18.46;100.0
39295;BME280;52361;52.100;5.248;2023-10-19T14:04:42;98976.0;;;18.59;100.0
39295;BME280;52361;52.100;5.248;2023-10-19T14:06:18;98973.0;;;18.75;100.0
39295;BME280;52361;52.100;5.248;2023-10-19T14:11:07;98969.0;;;18.45;100.0
39295;BME280;52361;52.100;5.248;2023-10-19T14:12:43;98970.0;;;18.63;100.0
39295;BME280;52361;52.100;5.248;2023-10-19T14:15:56;98964.0;;;18.5;100.0
39295;BME280;52361;52.100;5.248;2023-10-19T14:17:32;98959.0;;;18.46;100.0
39295;BME280;52361;52.100;5.248;2023-10-19T14:19:08;98958.0;;;18.39;100.0
39295;BME280;52361;52.100;5.248;2023-10-19T14:20:44;98956.0;;;18.45;100.0
39295;BME280;52361;52.100;5.248;2023-10-19T14:25:37;98952.0;;;18.54;100.0
39295;BME280;52361;52.100;5.248;2023-10-19T14:27:13;98952.0;;;18.55;100.0
39295;BME280;52361;52.100;5.248;2023-10-19T14:30:27;98951.0;;;18.38;100.0
39295;BME280;52361;52.100;5.248;2023-10-19T14:32:04;98950.0;;;18.5;100.0
39295;BME280;52361;52.100;5.248;2023-10-19T14:33:41;98951.0;;;18.62;100.0
39295;BME280;52361;52.100;5.248;2023-10-19T14:35:18;98940.0;;;18.29;100.0
39295;BME280;52361;52.100;5.248;2023-10-19T14:38:31;98935.0;;;18.36;100.0
39295;BME280;52361;52.100;5.248;2023-10-19T14:44:59;98924.0;;;18.09;100.0
39295;BME280;52361;52.100;5.248;2023-10-19T14:46:35;98919.0;;;18.27;100.0
39295;BME280;52361;52.100;5.248;2023-10-19T14:51:23;98905.0;;;18.12;100.0
39295;BME280;52361;52.100;5.248;2023-10-19T14:54:35;98893.0;;;18.2;100.0
39295;BME280;52361;52.100;5.248;2023-10-19T15:01:03;98883.0;;;17.86;100.0
39295;BME280;52361;52.100;5.248;2023-10-19T15:05:51;98870.0;;;17.8;100.0
39295;BME280;52361;52.100;5.248;2023-10-19T15:07:28;98866.0;;;17.62;100.0
39295;BME280;52361;52.100;5.248;2023-10-19T15:12:17;98861.0;;;17.88;100.0
39295;BME280;52361;52.100;5.248;2023-10-19T15:13:53;98856.0;;;17.93;100.0
39295;BME280;52361;52.100;5.248;2023-10-19T15:17:06;98855.0;;;17.75;100.0
39295;BME280;52361;52.100;5.248;2023-10-19T15:20:19;98856.0;;;17.91;100.0
39295;BME280;52361;52.100;5.248;2023-10-19T15:21:56;98855.0;;;17.7;100.0
39295;BME280;52361;52.100;5.248;2023-10-19T15:23:33;98851.0;;;17.7;100.0
39295;BME280;52361;52.100;5.248;2023-10-19T15:26:47;98852.0;;;17.66;100.0
39295;BME280;52361;52.100;5.248;2023-10-19T15:28:23;98851.0;;;17.75;100.0
39295;BME280;52361;52.100;5.248;2023-10-19T15:34:48;98863.0;;;17.89;100.0
39295;BME280;52361;52.100;5.248;2023-10-19T15:36:25;98872.0;;;17.95;100.0
39295;BME280;52361;52.100;5.248;2023-10-19T15:39:37;98878.0;;;17.98;100.0
39295;BME280;52361;52.100;5.248;2023-10-19T15:44:25;98868.0;;;17.93;100.0
39295;BME280;52361;52.100;5.248;2023-10-19T15:49:14;98857.0;;;17.7;100.0
39295;BME280;52361;52.100;5.248;2023-10-19T15:50:51;98857.0;;;17.62;100.0
39295;BME280;52361;52.100;5.248;2023-10-19T15:54:05;98847.0;;;17.66;100.0
39295;BME280;52361;52.100;5.248;2023-10-19T15:55:42;98852.0;;;17.79;100.0
39295;BME280;52361;52.100;5.248;2023-10-19T15:57:19;98853.0;;;17.79;100.0
39295;BME280;52361;52.100;5.248;2023-10-19T16:00:31;98855.0;;;17.86;100.0
39295;BME280;52361;52.100;5.248;2023-10-19T16:02:07;98853.0;;;17.75;100.0
39295;BME280;52361;52.100;5.248;2023-10-19T16:05:19;98851.0;;;17.77;100.0
39295;BME280;52361;52.100;5.248;2023-10-19T16:08:31;98841.0;;;17.63;100.0
39295;BME280;52361;52.100;5.248;2023-10-19T16:10:08;98837.0;;;17.61;100.0
39295;BME280;52361;52.100;5.248;2023-10-19T16:11:44;98849.0;;;17.77;100.0
39295;BME280;52361;52.100;5.248;2023-10-19T16:14:57;98850.0;;;17.63;100.0
39295;BME280;52361;52.100;5.248;2023-10-19T16:16:33;98844.0;;;17.79;100.0
39295;BME280;52361;52.100;5.248;2023-10-19T16:18:09;98844.0;;;17.52;100.0
39295;BME280;52361;52.100;5.248;2023-10-19T16:22:57;98833.0;;;17.79;100.0
39295;BME280;52361;52.100;5.248;2023-10-19T16:24:33;98830.0;;;17.46;100.0
39295;BME280;52361;52.100;5.248;2023-10-19T16:26:10;98833.0;;;17.38;100.0
39295;BME280;52361;52.100;5.248;2023-10-19T16:29:23;98833.0;;;17.47;100.0
39295;BME280;52361;52.100;5.248;2023-10-19T16:31:01;98833.0;;;17.55;100.0
39295;BME280;52361;52.100;5.248;2023-10-19T16:32:38;98834.0;;;17.47;100.0
39295;BME280;52361;52.100;5.248;2023-10-19T16:35:52;98839.0;;;17.45;100.0
39295;BME280;52361;52.100;5.248;2023-10-19T16:42:18;98846.0;;;17.52;100.0
39295;BME280;52361;52.100;5.248;2023-10-19T16:43:54;98846.0;;;17.57;100.0
39295;BME280;52361;52.100;5.248;2023-10-19T16:47:08;98845.0;;;17.36;100.0
39295;BME280;52361;52.100;5.248;2023-10-19T16:50:21;98847.0;;;17.34;100.0
39295;BME280;52361;52.100;5.248;2023-10-19T16:51:57;98848.0;;;17.52;100.0
39295;BME280;52361;52.100;5.248;2023-10-19T16:53:33;98853.0;;;17.45;100.0
39295;BME280;52361;52.100;5.248;2023-10-19T16:58:23;98858.0;;;17.43;100.0
39295;BME280;52361;52.100;5.248;2023-10-19T17:03:11;98858.0;;;17.48;100.0
39295;BME280;52361;52.100;5.248;2023-10-19T17:04:48;98862.0;;;17.77;100.0
39295;BME280;52361;52.100;5.248;2023-10-19T17:06:24;98863.0;;;17.57;100.0
39295;BME280;52361;52.100;5.248;2023-10-19T17:08:00;98873.0;;;17.5;100.0
39295;BME280;52361;52.100;5.248;2023-10-19T17:17:37;98880.0;;;17.61;100.0
39295;BME280;52361;52.100;5.248;2023-10-19T17:20:49;98882.0;;;17.63;100.0
39295;BME280;52361;52.100;5.248;2023-10-19T17:24:01;98878.0;;;17.56;100.0
39295;BME280;52361;52.100;5.248;2023-10-19T17:25:37;98880.0;;;17.61;100.0
39295;BME280;52361;52.100;5.248;2023-10-19T17:27:14;98877.0;;;17.73;100.0
39295;BME280;52361;52.100;5.248;2023-10-19T17:38:26;98872.0;;;17.47;100.0
39295;BME280;52361;52.100;5.248;2023-10-19T17:40:03;98872.0;;;17.66;100.0
39295;BME280;52361;52.100;5.248;2023-10-19T17:46:28;98863.0;;;17.62;100.0
39295;BME280;52361;52.100;5.248;2023-10-19T17:48:04;98862.0;;;17.68;100.0
39295;BME280;52361;52.100;5.248;2023-10-19T17:56:06;98852.0;;;17.71;100.0
39295;BME280;52361;52.100;5.248;2023-10-19T17:59:19;98836.0;;;17.66;100.0
39295;BME280;52361;52.100;5.248;2023-10-19T18:05:44;98816.0;;;17.68;100.0
39295;BME280;52361;52.100;5.248;2023-10-19T18:07:21;98813.0;;;17.7;100.0
39295;BME280;52361;52.100;5.248;2023-10-19T18:08:58;98814.0;;;17.64;100.0
39295;BME280;52361;52.100;5.248;2023-10-19T18:12:11;98818.0;;;17.63;100.0
39295;BME280;52361;52.100;5.248;2023-10-19T18:15:24;98810.0;;;17.5;100.0
39295;BME280;52361;52.100;5.248;2023-10-19T18:17:00;98809.0;;;17.52;100.0
39295;BME280;52361;52.100;5.248;2023-10-19T18:21:52;98805.0;;;17.5;100.0
39295;BME280;52361;52.100;5.248;2023-10-19T18:26:43;98799.0;;;17.56;100.0
39295;BME280;52361;52.100;5.248;2023-10-19T18:28:19;98802.0;;;17.52;100.0
39295;BME280;52361;52.100;5.248;2023-10-19T18:29:55;98808.0;;;17.43;100.0
39295;BME280;52361;52.100;5.248;2023-10-19T18:33:08;98808.0;;;17.43;100.0
39295;BME280;52361;52.100;5.248;2023-10-19T18:34:44;98802.0;;;17.32;100.0
39295;BME280;52361;52.100;5.248;2023-10-19T18:37:57;98802.0;;;17.3;100.0
39295;BME280;52361;52.100;5.248;2023-10-19T18:41:11;98797.0;;;17.2;100.0
39295;BME280;52361;52.100;5.248;2023-10-19T18:42:47;98808.0;;;17.05;100.0
39295;BME280;52361;52.100;5.248;2023-10-19T18:44:23;98812.0;;;17.27;100.0
39295;BME280;52361;52.100;5.248;2023-10-19T18:47:39;98822.0;;;17.02;100.0
39295;BME280;52361;52.100;5.248;2023-10-19T18:49:15;98818.0;;;17.04;100.0
39295;BME280;52361;52.100;5.248;2023-10-19T18:50:55;98816.0;;;17.13;100.0
39295;BME280;52361;52.100;5.248;2023-10-19T18:57:26;98809.0;;;17.02;100.0
39295;BME280;52361;52.100;5.248;2023-10-19T18:59:02;98809.0;;;17.03;100.0
39295;BME280;52361;52.100;5.248;2023-10-19T19:02:14;98807.0;;;17.12;100.0
39295;BME280;52361;52.100;5.248;2023-10-19T19:03:51;98805.0;;;16.96;100.0
39295;BME280;52361;52.100;5.248;2023-10-19T19:05:28;98800.0;;;16.86;100.0
39295;BME280;52361;52.100;5.248;2023-10-19T19:08:40;98801.0;;;16.95;100.0